NPAS44 EGGD-EGGD
Flight info
| Callsign | NPAS44 |
|---|---|
| Flight time | 0h 4m |
| Altitude | 5000 |
| Route | NATIONAL POLICE AIR SERVICE |
| Aircraft | C172/L-SFG/C |
Departure
| Time | 2026-05-05 12:17 |
|---|---|
| Airport | Bristol Airport (EGGD) |
Arrival
| Time | 2026-05-05 12:21 |
|---|---|
| Airport | Bristol Airport (EGGD) |
| Time | Latitude | Longitude | Altitude | Speed | Heading |
|---|---|---|---|---|---|
| 2026-05-05 12:14 | 51.34899 | -2.86206 | 2215 ft | 0 kts | 331° |
| 2026-05-05 12:14 | 51.34901 | -2.86202 | 2216 ft | 0 kts | 331° |
| 2026-05-05 12:14 | 51.34901 | -2.86200 | 2216 ft | 0 kts | 331° |
| 2026-05-05 12:15 | 51.34902 | -2.86199 | 2217 ft | 0 kts | 331° |
| 2026-05-05 12:15 | 51.34902 | -2.86198 | 2217 ft | 0 kts | 331° |
| 2026-05-05 12:15 | 51.34903 | -2.86197 | 2217 ft | 0 kts | 331° |
| 2026-05-05 12:16 | 51.34907 | -2.86185 | 2214 ft | 1 kts | 332° |
| 2026-05-05 12:16 | 51.34909 | -2.86180 | 2214 ft | 1 kts | 332° |
| 2026-05-05 12:17 | 51.34909 | -2.86177 | 2215 ft | 0 kts | 331° |
| 2026-05-05 12:17 | 51.34910 | -2.86175 | 2215 ft | 0 kts | 331° |
| 2026-05-05 12:17 | 51.35038 | -2.86274 | 1939 ft | 67 kts | 334° |
| 2026-05-05 12:17 | 51.35599 | -2.86660 | 1482 ft | 98 kts | 335° |
| 2026-05-05 12:18 | 51.36022 | -2.87524 | 1312 ft | 110 kts | 287° |
| 2026-05-05 12:18 | 51.36228 | -2.88748 | 1174 ft | 115 kts | 285° |
| 2026-05-05 12:18 | 51.36480 | -2.89969 | 1028 ft | 117 kts | 303° |
| 2026-05-05 12:18 | 51.37107 | -2.90751 | 845 ft | 115 kts | 324° |
| 2026-05-05 12:19 | 51.37512 | -2.91819 | 817 ft | 116 kts | 281° |
| 2026-05-05 12:19 | 51.37377 | -2.93038 | 832 ft | 118 kts | 237° |
| 2026-05-05 12:19 | 51.36739 | -2.93804 | 843 ft | 116 kts | 194° |
| 2026-05-05 12:19 | 51.35924 | -2.93710 | 816 ft | 121 kts | 152° |
| 2026-05-05 12:20 | 51.35189 | -2.93205 | 819 ft | 120 kts | 172° |
| 2026-05-05 12:20 | 51.34470 | -2.93853 | 688 ft | 120 kts | 233° |
| 2026-05-05 12:20 | 51.34144 | -2.94971 | 801 ft | 106 kts | 247° |
| 2026-05-05 12:20 | 51.34074 | -2.96119 | 728 ft | 103 kts | 291° |
| 2026-05-05 12:21 | 51.34635 | -2.96313 | 436 ft | 102 kts | 31° |
| 2026-05-05 12:21 | 51.34837 | -2.95385 | 378 ft | 88 kts | 95° |
| 2026-05-05 12:21 | 51.34429 | -2.94729 | 260 ft | 78 kts | 167° |
| 2026-05-05 12:21 | 51.34156 | -2.94975 | 229 ft | 33 kts | 309° |
| 2026-05-05 12:22 | 51.34165 | -2.95166 | 111 ft | 14 kts | 333° |
| 2026-05-05 12:22 | 51.34227 | -2.95251 | 48 ft | 6 kts | 349° |
| 2026-05-05 12:22 | 51.34232 | -2.95255 | 29 ft | 0 kts | 358° |
| 2026-05-05 12:23 | 51.34233 | -2.95255 | 29 ft | 0 kts | 349° |
| 2026-05-05 12:23 | 51.34234 | -2.95252 | 31 ft | 0 kts | 354° |
| 2026-05-05 12:23 | 51.34239 | -2.95247 | 39 ft | 1 kts | 3° |
| 2026-05-05 12:23 | 51.34217 | -2.95143 | 357 ft | 39 kts | 135° |
| 2026-05-05 12:24 | 51.33725 | -2.94694 | 326 ft | 103 kts | 162° |
| 2026-05-05 12:24 | 51.33081 | -2.95159 | 473 ft | 115 kts | 235° |
| 2026-05-05 12:24 | 51.32601 | -2.96227 | 686 ft | 124 kts | 244° |
| 2026-05-05 12:24 | 51.32196 | -2.97499 | 773 ft | 133 kts | 247° |
| 2026-05-05 12:25 | 51.32006 | -2.98987 | 694 ft | 140 kts | 287° |
| 2026-05-05 12:25 | 51.32512 | -3.00070 | 785 ft | 72 kts | 331° |
| 2026-05-05 12:25 | 51.33093 | -3.00658 | 891 ft | 127 kts | 326° |
| 2026-05-05 12:25 | 51.33873 | -3.01603 | 840 ft | 150 kts | 326° |
| 2026-05-05 12:26 | 51.34827 | -3.02311 | 328 ft | 100 kts | 334° |
| 2026-05-05 12:26 | 51.34813 | -3.02245 | 1033 ft | 1 kts | 189° |
| 2026-05-05 12:26 | 51.34812 | -3.02229 | 1774 ft | 1 kts | 180° |
| 2026-05-05 12:26 | 51.34809 | -3.02220 | 2338 ft | 1 kts | 173° |
| 2026-05-05 12:27 | 51.34772 | -3.02302 | 2808 ft | 44 kts | 192° |
| 2026-05-05 12:27 | 51.34960 | -3.03249 | 1933 ft | 130 kts | 307° |
| 2026-05-05 12:27 | 51.35565 | -3.04506 | 1316 ft | 148 kts | 307° |
| 2026-05-05 12:27 | 51.36156 | -3.05812 | 842 ft | 147 kts | 303° |
| 2026-05-05 12:28 | 51.36740 | -3.07067 | 741 ft | 136 kts | 303° |
| 2026-05-05 12:28 | 51.37285 | -3.08309 | 625 ft | 134 kts | 301° |
| 2026-05-05 12:28 | 51.37776 | -3.09525 | 619 ft | 133 kts | 300° |
| 2026-05-05 12:28 | 51.38286 | -3.10748 | 686 ft | 129 kts | 301° |
| 2026-05-05 12:29 | 51.38778 | -3.11932 | 772 ft | 128 kts | 301° |
| 2026-05-05 12:29 | 51.39279 | -3.13097 | 843 ft | 129 kts | 303° |
| 2026-05-05 12:29 | 51.39772 | -3.14295 | 906 ft | 127 kts | 299° |
| 2026-05-05 12:29 | 51.40277 | -3.15494 | 856 ft | 132 kts | 302° |
| 2026-05-05 12:30 | 51.40784 | -3.16743 | 673 ft | 133 kts | 298° |
| 2026-05-05 12:30 | 51.41275 | -3.17968 | 586 ft | 128 kts | 295° |
| 2026-05-05 12:30 | 51.41697 | -3.19195 | 570 ft | 121 kts | 289° |
| 2026-05-05 12:30 | 51.41856 | -3.20498 | 487 ft | 117 kts | 261° |
| 2026-05-05 12:31 | 51.41645 | -3.21654 | 525 ft | 109 kts | 233° |
| 2026-05-05 12:31 | 51.41228 | -3.22672 | 638 ft | 108 kts | 234° |
| 2026-05-05 12:31 | 51.40796 | -3.23684 | 758 ft | 112 kts | 229° |
| 2026-05-05 12:31 | 51.40309 | -3.24713 | 746 ft | 123 kts | 230° |
| 2026-05-05 12:32 | 51.39803 | -3.25859 | 721 ft | 128 kts | 238° |
| 2026-05-05 12:32 | 51.39725 | -3.27254 | 752 ft | 127 kts | 278° |
| 2026-05-05 12:32 | 51.40118 | -3.28471 | 869 ft | 126 kts | 313° |
| 2026-05-05 12:32 | 51.40958 | -3.28673 | 849 ft | 135 kts | 13° |
| 2026-05-05 12:33 | 51.41547 | -3.27623 | 1000 ft | 130 kts | 78° |
| 2026-05-05 12:33 | 51.41024 | -3.26575 | 1018 ft | 131 kts | 158° |
| 2026-05-05 12:33 | 51.40435 | -3.27324 | 1050 ft | 114 kts | 264° |
| 2026-05-05 12:33 | 51.40894 | -3.28076 | 1048 ft | 108 kts | 1° |
| 2026-05-05 12:34 | 51.41550 | -3.27834 | 1238 ft | 83 kts | 16° |
| 2026-05-05 12:34 | 51.41713 | -3.27227 | 1395 ft | 61 kts | 107° |
| 2026-05-05 12:34 | 51.41537 | -3.27115 | 1473 ft | 5 kts | 99° |
| 2026-05-05 12:34 | 51.41523 | -3.27121 | 1440 ft | 1 kts | 98° |
| 2026-05-05 12:35 | 51.41512 | -3.27123 | 1320 ft | 1 kts | 91° |
| 2026-05-05 12:35 | 51.41503 | -3.27125 | 1215 ft | 2 kts | 81° |
| 2026-05-05 12:35 | 51.41496 | -3.27125 | 1067 ft | 1 kts | 81° |
| 2026-05-05 12:35 | 51.41493 | -3.27127 | 922 ft | 1 kts | 97° |
| 2026-05-05 12:36 | 51.41502 | -3.27144 | 764 ft | 7 kts | 253° |
| 2026-05-05 12:36 | 51.41507 | -3.27251 | 725 ft | 13 kts | 247° |
| 2026-05-05 12:36 | 51.41475 | -3.27526 | 786 ft | 44 kts | 251° |
| 2026-05-05 12:36 | 51.41418 | -3.28319 | 708 ft | 94 kts | 263° |
| 2026-05-05 12:37 | 51.41390 | -3.29544 | 651 ft | 119 kts | 264° |
| 2026-05-05 12:37 | 51.41371 | -3.30861 | 666 ft | 120 kts | 261° |
| 2026-05-05 12:37 | 51.41134 | -3.32073 | 729 ft | 116 kts | 244° |
| 2026-05-05 12:37 | 51.40903 | -3.33360 | 628 ft | 121 kts | 248° |
| 2026-05-05 12:38 | 51.40388 | -3.34282 | 638 ft | 103 kts | 212° |
| 2026-05-05 12:38 | 51.39861 | -3.34715 | 811 ft | 68 kts | 201° |
| 2026-05-05 12:38 | 51.39485 | -3.34999 | 797 ft | 41 kts | 201° |
| 2026-05-05 12:38 | 51.39390 | -3.35076 | 724 ft | 0 kts | 204° |
| 2026-05-05 12:39 | 51.39375 | -3.35094 | 587 ft | 5 kts | 199° |
| 2026-05-05 12:39 | 51.39326 | -3.35110 | 457 ft | 8 kts | 157° |
| 2026-05-05 12:39 | 51.39326 | -3.35058 | 344 ft | 8 kts | 89° |
| 2026-05-05 12:39 | 51.39372 | -3.35057 | 257 ft | 5 kts | 349° |
| 2026-05-05 12:40 | 51.39414 | -3.35043 | 247 ft | 7 kts | 7° |
| 2026-05-05 12:40 | 51.39440 | -3.35003 | 243 ft | 5 kts | 82° |
| 2026-05-05 12:40 | 51.39450 | -3.34934 | 244 ft | 6 kts | 83° |
| 2026-05-05 12:40 | 51.39465 | -3.34819 | 238 ft | 15 kts | 78° |
| 2026-05-05 12:41 | 51.39487 | -3.34699 | 230 ft | 6 kts | 76° |
| 2026-05-05 12:41 | 51.39499 | -3.34633 | 226 ft | 6 kts | 73° |
| 2026-05-05 12:41 | 51.39517 | -3.34618 | 225 ft | 3 kts | 351° |
| 2026-05-05 12:41 | 51.39532 | -3.34615 | 225 ft | 2 kts | 347° |
| 2026-05-05 12:42 | 51.39538 | -3.34616 | 223 ft | 0 kts | 350° |
| 2026-05-05 12:59 | 51.39538 | -3.34615 | 220 ft | 0 kts | 342° |
| 2026-05-05 12:59 | 51.39539 | -3.34615 | 220 ft | 0 kts | 338° |
| 2026-05-05 12:59 | 51.39538 | -3.34619 | 220 ft | 0 kts | 47° |
| 2026-05-05 13:00 | 51.39533 | -3.34599 | 220 ft | 1 kts | 132° |
| 2026-05-05 13:00 | 51.39528 | -3.34589 | 220 ft | 2 kts | 123° |